Haj Yehia — 5VCR6 — position and weather

sailwx.info

Track history (hours):
 
Tides and Currents Weather Stations Pressure Air Temp Water Temp Dewpoint Dewpoint Depression Visibility Wind Speed Wind Dir Waves Ship Positions

Haj Yehia

Last reported at 2018-Apr-13 08:15 UTC. Time now 2018-Apr-23 05:24 UTC.
Position N 45°19' E 014°26'.
Warning: this ship's position is 9 days out of date.

Length 100 m; draft 4.8 m.

Type: Ship. MMSI: 671471000.

Date/timePositionNaut miles runAvg speedWind from/ knotsBaromVisibWave heightAir tempDewpointWater temp
2018-Apr-13 08:15N 45°19' E 014°26'0 0.0
2018-Apr-13 06:39N 45°19' E 014°26'0 0.0
2018-Apr-13 06:27N 45°19' E 014°26'2 0.1
2018-Apr-12 06:09N 45°19' E 014°24'1 3.8
2018-Apr-12 05:55N 45°18' E 014°23'6 6.2
2018-Apr-12 04:55N 45°13' E 014°19'23 8.5
2018-Apr-12 02:15N 44°52' E 014°07'311.6
2018-Apr-12 02:01N 44°49' E 014°05'611.9
2018-Apr-12 01:31N 44°45' E 014°00'710.8
2018-Apr-12 00:50N 44°43' E 013°50'1211.8
2018-Apr-11 23:51N 44°51' E 013°38'411.9
2018-Apr-11 23:31N 44°53' E 013°33'611.9
2018-Apr-11 23:01N 44°57' E 013°27'611.9
2018-Apr-11 22:30N 45°01' E 013°20'612.0
2018-Apr-11 22:00N 45°04' E 013°14'611.8
2018-Apr-11 21:30N 45°08' E 013°07'611.9
2018-Apr-11 21:00N 45°14' E 013°04'612.8
2018-Apr-11 20:30N 45°20' E 013°03'612.4
2018-Apr-11 20:01N 45°25' E 013°07'713.0
2018-Apr-11 19:31N 45°30' E 013°14'612.8
2018-Apr-11 19:01N 45°34' E 013°21'713.0
2018-Apr-11 18:31N 45°36' E 013°29'611.9
2018-Apr-11 18:00N 45°37' E 013°38'510.5
2018-Apr-11 17:30N 45°33' E 013°44'0 0.5
2018-Apr-11 16:51N 45°33' E 013°44'0 0.0
2018-Apr-11 16:21N 45°33' E 013°44'0 0.0
2018-Apr-11 16:00N 45°33' E 013°44'0 0.0
2018-Apr-11 15:30N 45°33' E 013°44'0 0.0
2018-Apr-11 15:00N 45°33' E 013°44'0 0.0
2018-Apr-11 14:30N 45°33' E 013°44'0 0.0
2018-Apr-11 13:54N 45°33' E 013°44'0 0.0
2018-Apr-11 13:30N 45°33' E 013°44'0 0.0
2018-Apr-11 13:00N 45°33' E 013°44'0 0.0
2018-Apr-11 12:30N 45°33' E 013°44'0 0.0
2018-Apr-11 11:57N 45°33' E 013°44'0 0.0
2018-Apr-11 11:30N 45°33' E 013°44'0 0.0
2018-Apr-11 10:54N 45°33' E 013°44'0 0.0
2018-Apr-11 10:30N 45°33' E 013°44'0 0.0
2018-Apr-11 09:48N 45°33' E 013°44'0 0.0
2018-Apr-11 09:18N 45°33' E 013°44'0 0.0
2018-Apr-11 09:00N 45°33' E 013°44'0 0.0
2018-Apr-11 08:30N 45°33' E 013°44'0 0.0
2018-Apr-11 08:00N 45°33' E 013°44'0 0.0
2018-Apr-11 07:30N 45°33' E 013°44'0 0.0
2018-Apr-11 06:57N 45°33' E 013°44'0 0.0
2018-Apr-11 06:24N 45°33' E 013°44'0 0.0
2018-Apr-11 06:00N 45°33' E 013°44'0 0.0
2018-Apr-11 05:27N 45°33' E 013°44'0 0.0
2018-Apr-11 05:00N 45°33' E 013°44'0 0.0
2018-Apr-11 04:21N 45°33' E 013°44'0 0.0
2018-Apr-11 03:54N 45°33' E 013°44'0 0.0
2018-Apr-11 03:12N 45°33' E 013°44'0 0.0
2018-Apr-11 02:57N 45°33' E 013°44'0 0.0
2018-Apr-11 02:27N 45°33' E 013°44'0 0.0
2018-Apr-11 02:00N 45°33' E 013°44'0 0.0
2018-Apr-11 01:30N 45°33' E 013°44'0 0.0
2018-Apr-11 01:00N 45°33' E 013°44'0 0.0
2018-Apr-11 00:27N 45°33' E 013°44'0 0.0
2018-Apr-11 00:00N 45°33' E 013°44'0 0.0
2018-Apr-10 23:27N 45°33' E 013°44'0 0.0
2018-Apr-10 22:57N 45°33' E 013°44'0 0.0
2018-Apr-10 22:30N 45°33' E 013°44'0 0.0
2018-Apr-10 22:00N 45°33' E 013°44'0 0.0
2018-Apr-10 21:27N 45°33' E 013°44'0 0.0
2018-Apr-10 21:00N 45°33' E 013°44'0 0.0
2018-Apr-10 20:21N 45°33' E 013°44'0 0.0
2018-Apr-10 20:00N 45°33' E 013°44'0 0.0
2018-Apr-10 19:30N 45°33' E 013°44'0 0.0
2018-Apr-10 19:00N 45°33' E 013°44'0 0.0
2018-Apr-10 18:30N 45°33' E 013°44'0 0.0
2018-Apr-10 18:00N 45°33' E 013°44'0 0.0
2018-Apr-10 17:27N 45°33' E 013°44'0 0.0
2018-Apr-10 17:00N 45°33' E 013°44'0 0.0
2018-Apr-10 16:27N 45°33' E 013°44'0 0.0
2018-Apr-10 16:00N 45°33' E 013°44'0 0.0
2018-Apr-10 15:30N 45°33' E 013°44'0 0.0
2018-Apr-10 15:00N 45°33' E 013°44'0 0.0
2018-Apr-10 14:24N 45°33' E 013°44'0 0.0
2018-Apr-10 14:00N 45°33' E 013°44'0 0.0
2018-Apr-10 13:18N 45°33' E 013°44'0 0.0
2018-Apr-10 13:00N 45°33' E 013°44'0 0.0
2018-Apr-10 12:30N 45°33' E 013°44'0 0.0
2018-Apr-10 11:57N 45°33' E 013°44'0 0.0
2018-Apr-10 11:24N 45°33' E 013°44'0 0.0
2018-Apr-10 11:00N 45°33' E 013°44'0 0.0
2018-Apr-10 10:27N 45°33' E 013°44'0 0.0
2018-Apr-10 09:54N 45°33' E 013°44'0 0.0
2018-Apr-10 09:27N 45°33' E 013°44'0 0.0
2018-Apr-10 08:57N 45°33' E 013°44'0 0.0
2018-Apr-10 08:30N 45°33' E 013°44'0 0.0
2018-Apr-10 07:54N 45°33' E 013°44'0 0.0
2018-Apr-10 07:30N 45°33' E 013°44'0 0.0
2018-Apr-10 07:00N 45°33' E 013°44'0 0.0
2018-Apr-10 06:27N 45°33' E 013°44'0 0.0
2018-Apr-10 06:00N 45°33' E 013°44'0 0.0
2018-Apr-10 05:30N 45°33' E 013°44'0 0.0
2018-Apr-10 04:57N 45°33' E 013°44'0 0.0
2018-Apr-10 04:30N 45°33' E 013°44'0 0.0
2018-Apr-10 03:42N 45°33' E 013°44'0 0.0
2018-Apr-10 03:30N 45°33' E 013°44'0 0.0
2018-Apr-10 02:57N 45°33' E 013°44'0 0.0
2018-Apr-10 02:24N 45°33' E 013°44'0 0.0
2018-Apr-10 01:48N 45°33' E 013°44'0 0.0
2018-Apr-10 01:30N 45°33' E 013°44'0 0.0
2018-Apr-10 01:00N 45°33' E 013°44'0 0.0
2018-Apr-10 00:30N 45°33' E 013°44'0 0.0
2018-Apr-10 00:00N 45°33' E 013°44'0 0.0
2018-Apr-09 23:30N 45°33' E 013°44'0 0.0
2018-Apr-09 23:00N 45°33' E 013°44'0 0.0
2018-Apr-09 22:30N 45°33' E 013°44'0 0.0
2018-Apr-09 21:54N 45°33' E 013°44'0 0.0
2018-Apr-09 21:24N 45°33' E 013°44'0 0.0
2018-Apr-09 21:00N 45°33' E 013°44'0 0.0
2018-Apr-09 20:27N 45°33' E 013°44'0 0.0
2018-Apr-09 20:00N 45°33' E 013°44'0 0.0
2018-Apr-09 19:30N 45°33' E 013°44'0 0.0
2018-Apr-09 19:00N 45°33' E 013°44'0 0.0
2018-Apr-09 18:27N 45°33' E 013°44'0 0.0
2018-Apr-09 17:57N 45°33' E 013°44'0 0.0
2018-Apr-09 17:30N 45°33' E 013°44'0 0.0
2018-Apr-09 17:00N 45°33' E 013°44'0 0.0
2018-Apr-09 16:30N 45°33' E 013°44'0 0.0
2018-Apr-09 15:57N 45°33' E 013°44'0 0.0
2018-Apr-09 15:30N 45°33' E 013°44'0 0.0
2018-Apr-09 15:00N 45°33' E 013°44'0 0.0
2018-Apr-09 14:24N 45°33' E 013°44'0 0.0
2018-Apr-09 13:57N 45°33' E 013°44'0 0.0
2018-Apr-09 13:27N 45°33' E 013°44'0 0.0
2018-Apr-09 12:51N 45°33' E 013°44'0 0.0
2018-Apr-09 12:27N 45°33' E 013°44'0 0.0
2018-Apr-09 12:00N 45°33' E 013°44'0 0.0
2018-Apr-09 11:30N 45°33' E 013°44'0 0.0
2018-Apr-09 10:51N 45°33' E 013°44'0 0.0
2018-Apr-09 10:27N 45°33' E 013°44'0 0.0
2018-Apr-09 09:57N 45°33' E 013°44'0 0.0
2018-Apr-09 09:30N 45°33' E 013°44'0 0.0
2018-Apr-09 09:00N 45°33' E 013°44'0 0.0
2018-Apr-09 08:30N 45°33' E 013°44'0 0.0
2018-Apr-09 07:57N 45°33' E 013°44'0 0.0
2018-Apr-09 07:21N 45°33' E 013°44'0 0.0
2018-Apr-09 06:57N 45°33' E 013°44'1 1.3
2018-Apr-09 06:30N 45°33' E 013°44'2 3.1
2018-Apr-09 06:00N 45°34' E 013°42'0 0.8
2018-Apr-09 05:25N 45°34' E 013°41'0 0.0
2018-Apr-09 04:58N 45°35' E 013°41'0 0.0
2018-Apr-09 04:28N 45°34' E 013°41'0 0.0
2018-Apr-09 03:55N 45°34' E 013°41'0 0.0
2018-Apr-09 03:25N 45°34' E 013°41'0 0.0
2018-Apr-09 02:55N 45°34' E 013°41'0 0.0
2018-Apr-09 02:25N 45°34' E 013°41'0 0.0
2018-Apr-09 01:58N 45°34' E 013°41'0 0.0
2018-Apr-09 01:28N 45°34' E 013°41'0 0.0
2018-Apr-09 00:52N 45°34' E 013°41'0 0.0
2018-Apr-09 00:28N 45°34' E 013°41'0 0.0
2018-Apr-08 23:58N 45°34' E 013°41'0 0.0
2018-Apr-08 23:28N 45°34' E 013°41'0 0.0
2018-Apr-08 22:58N 45°34' E 013°41'0 0.0
2018-Apr-08 22:28N 45°34' E 013°41'0 0.0
2018-Apr-08 21:58N 45°34' E 013°41'0 0.0
2018-Apr-08 21:22N 45°34' E 013°41'0 0.0
2018-Apr-08 20:58N 45°34' E 013°41'0 0.0
2018-Apr-08 20:28N 45°34' E 013°41'0 0.0
2018-Apr-08 19:55N 45°34' E 013°41'0 0.0
2018-Apr-08 19:25N 45°35' E 013°41'0 0.1
2018-Apr-08 18:49N 45°35' E 013°41'0 0.0
2018-Apr-08 18:22N 45°35' E 013°41'0 0.0
2018-Apr-08 17:55N 45°35' E 013°41'0 0.0
2018-Apr-08 17:28N 45°35' E 013°41'0 0.0
2018-Apr-08 16:58N 45°35' E 013°41'0 0.0
2018-Apr-08 16:28N 45°35' E 013°41'0 0.0
2018-Apr-08 15:49N 45°35' E 013°41'0 0.0
2018-Apr-08 15:22N 45°34' E 013°41'0 0.1
2018-Apr-08 14:58N 45°34' E 013°41'0 0.1
2018-Apr-08 14:25N 45°34' E 013°41'0 0.0
2018-Apr-08 13:58N 45°34' E 013°41'0 0.0
2018-Apr-08 13:19N 45°34' E 013°41'0 0.0
2018-Apr-07 18:28N 45°34' E 013°41'0 0.1
2018-Apr-07 17:58N 45°34' E 013°41'0 0.0
2018-Apr-07 17:25N 45°34' E 013°41'0 0.0
2018-Apr-07 16:58N 45°34' E 013°41'0 0.1
2018-Apr-07 16:28N 45°34' E 013°41'0 0.0
2018-Apr-07 15:55N 45°34' E 013°41'0 0.0
2018-Apr-07 15:28N 45°34' E 013°41'0 0.0
2018-Apr-07 14:58N 45°34' E 013°41'0 0.0
2018-Apr-07 14:25N 45°34' E 013°41'0 0.0
2018-Apr-07 13:49N 45°34' E 013°41'0 0.0
2018-Apr-07 13:28N 45°34' E 013°41'0 0.0
2018-Apr-07 12:49N 45°34' E 013°41'0 0.0
2018-Apr-07 12:28N 45°34' E 013°41'0 0.0
2018-Apr-07 11:58N 45°34' E 013°41'0 0.0
2018-Apr-07 11:19N 45°34' E 013°41'0 0.0
2018-Apr-07 10:52N 45°34' E 013°41'0 0.1
2018-Apr-07 10:25N 45°35' E 013°41'0 0.1
2018-Apr-07 09:58N 45°35' E 013°41'0 0.0
2018-Apr-07 09:28N 45°34' E 013°41'0 0.0
2018-Apr-07 08:58N 45°34' E 013°41'0 0.0
2018-Apr-07 08:25N 45°35' E 013°41'0 0.0
2018-Apr-07 07:58N 45°35' E 013°41'0 0.0
2018-Apr-07 07:25N 45°35' E 013°41'0 0.0
2018-Apr-07 06:58N 45°35' E 013°41'0 0.0
2018-Apr-07 06:19N 45°35' E 013°41'0 0.0
2018-Apr-07 05:58N 45°35' E 013°41'0 0.0
2018-Apr-07 05:28N 45°34' E 013°41'0 0.0
2018-Apr-07 04:58N 45°34' E 013°41'0 0.0
2018-Apr-07 04:25N 45°34' E 013°41'0 0.1
2018-Apr-07 03:58N 45°34' E 013°41'0 0.0
2018-Apr-07 03:25N 45°34' E 013°41'0 0.1
2018-Apr-07 02:58N 45°35' E 013°41'0 0.0
2018-Apr-07 02:28N 45°34' E 013°41'0 0.0
2018-Apr-07 01:55N 45°34' E 013°41'0 0.0
2018-Apr-07 01:28N 45°34' E 013°41'0 0.0
2018-Apr-07 00:58N 45°34' E 013°41'0 0.0
2018-Apr-07 00:28N 45°34' E 013°41'0 0.0
2018-Apr-06 23:58N 45°34' E 013°41'0 0.0
2018-Apr-06 23:28N 45°34' E 013°41'0 0.0
2018-Apr-06 22:58N 45°34' E 013°41'0 0.0
2018-Apr-06 22:31N 45°34' E 013°41'0 0.2
2018-Apr-06 22:00N 45°34' E 013°41'3 6.7
2018-Apr-06 21:31N 45°34' E 013°36'611.5
2018-Apr-06 21:01N 45°33' E 013°28'612.1
2018-Apr-06 20:30N 45°29' E 013°21'612.1
2018-Apr-06 19:59N 45°25' E 013°15'511.2
2018-Apr-06 19:30N 45°19' E 013°14'612.2
2018-Apr-06 19:00N 45°13' E 013°16'612.2
2018-Apr-06 18:31N 45°08' E 013°18'612.3
2018-Apr-06 18:00N 45°02' E 013°20'612.2
2018-Apr-06 17:30N 44°56' E 013°24'612.1
2018-Apr-06 17:00N 44°51' E 013°29'612.1
2018-Apr-06 16:30N 44°46' E 013°34'612.0
2018-Apr-06 16:00N 44°41' E 013°38'612.0
2018-Apr-06 15:30N 44°36' E 013°43'612.1
2018-Apr-06 15:00N 44°31' E 013°47'912.3
2018-Apr-06 14:18N 44°23' E 013°53'  
Track history (hours):
 
Tides and Currents Weather Stations Pressure Air Temp Water Temp Dewpoint Dewpoint Depression Visibility Wind Speed Wind Dir Waves Ship Positions

Haj Yehia

Last reported at 2018-Apr-13 08:15 UTC. Time now 2018-Apr-23 05:24 UTC.
Position N 45°19' E 014°26'.
Warning: this ship's position is 9 days out of date.

Length 100 m; draft 4.8 m.

Type: Ship. MMSI: 671471000.

Date/timePositionNaut miles runAvg speedWind from/ knotsBaromVisibWave heightAir tempDewpointWater temp
2018-Apr-13 08:15N 45°19' E 014°26'0 0.0
2018-Apr-13 06:39N 45°19' E 014°26'0 0.0
2018-Apr-13 06:27N 45°19' E 014°26'2 0.1
2018-Apr-12 06:09N 45°19' E 014°24'1 3.8
2018-Apr-12 05:55N 45°18' E 014°23'6 6.2
2018-Apr-12 04:55N 45°13' E 014°19'23 8.5
2018-Apr-12 02:15N 44°52' E 014°07'311.6
2018-Apr-12 02:01N 44°49' E 014°05'611.9
2018-Apr-12 01:31N 44°45' E 014°00'710.8
2018-Apr-12 00:50N 44°43' E 013°50'1211.8
2018-Apr-11 23:51N 44°51' E 013°38'411.9
2018-Apr-11 23:31N 44°53' E 013°33'611.9
2018-Apr-11 23:01N 44°57' E 013°27'611.9
2018-Apr-11 22:30N 45°01' E 013°20'612.0
2018-Apr-11 22:00N 45°04' E 013°14'611.8
2018-Apr-11 21:30N 45°08' E 013°07'611.9
2018-Apr-11 21:00N 45°14' E 013°04'612.8
2018-Apr-11 20:30N 45°20' E 013°03'612.4
2018-Apr-11 20:01N 45°25' E 013°07'713.0
2018-Apr-11 19:31N 45°30' E 013°14'612.8
2018-Apr-11 19:01N 45°34' E 013°21'713.0
2018-Apr-11 18:31N 45°36' E 013°29'611.9
2018-Apr-11 18:00N 45°37' E 013°38'510.5
2018-Apr-11 17:30N 45°33' E 013°44'0 0.5
2018-Apr-11 16:51N 45°33' E 013°44'0 0.0
2018-Apr-11 16:21N 45°33' E 013°44'0 0.0
2018-Apr-11 16:00N 45°33' E 013°44'0 0.0
2018-Apr-11 15:30N 45°33' E 013°44'0 0.0
2018-Apr-11 15:00N 45°33' E 013°44'0 0.0
2018-Apr-11 14:30N 45°33' E 013°44'0 0.0
2018-Apr-11 13:54N 45°33' E 013°44'0 0.0
2018-Apr-11 13:30N 45°33' E 013°44'0 0.0
2018-Apr-11 13:00N 45°33' E 013°44'0 0.0
2018-Apr-11 12:30N 45°33' E 013°44'0 0.0
2018-Apr-11 11:57N 45°33' E 013°44'0 0.0
2018-Apr-11 11:30N 45°33' E 013°44'0 0.0
2018-Apr-11 10:54N 45°33' E 013°44'0 0.0
2018-Apr-11 10:30N 45°33' E 013°44'0 0.0
2018-Apr-11 09:48N 45°33' E 013°44'0 0.0
2018-Apr-11 09:18N 45°33' E 013°44'0 0.0
2018-Apr-11 09:00N 45°33' E 013°44'0 0.0
2018-Apr-11 08:30N 45°33' E 013°44'0 0.0
2018-Apr-11 08:00N 45°33' E 013°44'0 0.0
2018-Apr-11 07:30N 45°33' E 013°44'0 0.0
2018-Apr-11 06:57N 45°33' E 013°44'0 0.0
2018-Apr-11 06:24N 45°33' E 013°44'0 0.0
2018-Apr-11 06:00N 45°33' E 013°44'0 0.0
2018-Apr-11 05:27N 45°33' E 013°44'0 0.0
2018-Apr-11 05:00N 45°33' E 013°44'0 0.0
2018-Apr-11 04:21N 45°33' E 013°44'0 0.0
2018-Apr-11 03:54N 45°33' E 013°44'0 0.0
2018-Apr-11 03:12N 45°33' E 013°44'0 0.0
2018-Apr-11 02:57N 45°33' E 013°44'0 0.0
2018-Apr-11 02:27N 45°33' E 013°44'0 0.0
2018-Apr-11 02:00N 45°33' E 013°44'0 0.0
2018-Apr-11 01:30N 45°33' E 013°44'0 0.0
2018-Apr-11 01:00N 45°33' E 013°44'0 0.0
2018-Apr-11 00:27N 45°33' E 013°44'0 0.0
2018-Apr-11 00:00N 45°33' E 013°44'0 0.0
2018-Apr-10 23:27N 45°33' E 013°44'0 0.0
2018-Apr-10 22:57N 45°33' E 013°44'0 0.0
2018-Apr-10 22:30N 45°33' E 013°44'0 0.0
2018-Apr-10 22:00N 45°33' E 013°44'0 0.0
2018-Apr-10 21:27N 45°33' E 013°44'0 0.0
2018-Apr-10 21:00N 45°33' E 013°44'0 0.0
2018-Apr-10 20:21N 45°33' E 013°44'0 0.0
2018-Apr-10 20:00N 45°33' E 013°44'0 0.0
2018-Apr-10 19:30N 45°33' E 013°44'0 0.0
2018-Apr-10 19:00N 45°33' E 013°44'0 0.0
2018-Apr-10 18:30N 45°33' E 013°44'0 0.0
2018-Apr-10 18:00N 45°33' E 013°44'0 0.0
2018-Apr-10 17:27N 45°33' E 013°44'0 0.0
2018-Apr-10 17:00N 45°33' E 013°44'0 0.0
2018-Apr-10 16:27N 45°33' E 013°44'0 0.0
2018-Apr-10 16:00N 45°33' E 013°44'0 0.0
2018-Apr-10 15:30N 45°33' E 013°44'0 0.0
2018-Apr-10 15:00N 45°33' E 013°44'0 0.0
2018-Apr-10 14:24N 45°33' E 013°44'0 0.0
2018-Apr-10 14:00N 45°33' E 013°44'0 0.0
2018-Apr-10 13:18N 45°33' E 013°44'0 0.0
2018-Apr-10 13:00N 45°33' E 013°44'0 0.0
2018-Apr-10 12:30N 45°33' E 013°44'0 0.0
2018-Apr-10 11:57N 45°33' E 013°44'0 0.0
2018-Apr-10 11:24N 45°33' E 013°44'0 0.0
2018-Apr-10 11:00N 45°33' E 013°44'0 0.0
2018-Apr-10 10:27N 45°33' E 013°44'0 0.0
2018-Apr-10 09:54N 45°33' E 013°44'0 0.0
2018-Apr-10 09:27N 45°33' E 013°44'0 0.0
2018-Apr-10 08:57N 45°33' E 013°44'0 0.0
2018-Apr-10 08:30N 45°33' E 013°44'0 0.0
2018-Apr-10 07:54N 45°33' E 013°44'0 0.0
2018-Apr-10 07:30N 45°33' E 013°44'0 0.0
2018-Apr-10 07:00N 45°33' E 013°44'0 0.0
2018-Apr-10 06:27N 45°33' E 013°44'0 0.0
2018-Apr-10 06:00N 45°33' E 013°44'0 0.0
2018-Apr-10 05:30N 45°33' E 013°44'0 0.0
2018-Apr-10 04:57N 45°33' E 013°44'0 0.0
2018-Apr-10 04:30N 45°33' E 013°44'0 0.0
2018-Apr-10 03:42N 45°33' E 013°44'0 0.0
2018-Apr-10 03:30N 45°33' E 013°44'0 0.0
2018-Apr-10 02:57N 45°33' E 013°44'0 0.0
2018-Apr-10 02:24N 45°33' E 013°44'0 0.0
2018-Apr-10 01:48N 45°33' E 013°44'0 0.0
2018-Apr-10 01:30N 45°33' E 013°44'0 0.0
2018-Apr-10 01:00N 45°33' E 013°44'0 0.0
2018-Apr-10 00:30N 45°33' E 013°44'0 0.0
2018-Apr-10 00:00N 45°33' E 013°44'0 0.0
2018-Apr-09 23:30N 45°33' E 013°44'0 0.0
2018-Apr-09 23:00N 45°33' E 013°44'0 0.0
2018-Apr-09 22:30N 45°33' E 013°44'0 0.0
2018-Apr-09 21:54N 45°33' E 013°44'0 0.0
2018-Apr-09 21:24N 45°33' E 013°44'0 0.0
2018-Apr-09 21:00N 45°33' E 013°44'0 0.0
2018-Apr-09 20:27N 45°33' E 013°44'0 0.0
2018-Apr-09 20:00N 45°33' E 013°44'0 0.0
2018-Apr-09 19:30N 45°33' E 013°44'0 0.0
2018-Apr-09 19:00N 45°33' E 013°44'0 0.0
2018-Apr-09 18:27N 45°33' E 013°44'0 0.0
2018-Apr-09 17:57N 45°33' E 013°44'0 0.0
2018-Apr-09 17:30N 45°33' E 013°44'0 0.0
2018-Apr-09 17:00N 45°33' E 013°44'0 0.0
2018-Apr-09 16:30N 45°33' E 013°44'0 0.0
2018-Apr-09 15:57N 45°33' E 013°44'0 0.0
2018-Apr-09 15:30N 45°33' E 013°44'0 0.0
2018-Apr-09 15:00N 45°33' E 013°44'0 0.0
2018-Apr-09 14:24N 45°33' E 013°44'0 0.0
2018-Apr-09 13:57N 45°33' E 013°44'0 0.0
2018-Apr-09 13:27N 45°33' E 013°44'0 0.0
2018-Apr-09 12:51N 45°33' E 013°44'0 0.0
2018-Apr-09 12:27N 45°33' E 013°44'0 0.0
2018-Apr-09 12:00N 45°33' E 013°44'0 0.0
2018-Apr-09 11:30N 45°33' E 013°44'0 0.0
2018-Apr-09 10:51N 45°33' E 013°44'0 0.0
2018-Apr-09 10:27N 45°33' E 013°44'0 0.0
2018-Apr-09 09:57N 45°33' E 013°44'0 0.0
2018-Apr-09 09:30N 45°33' E 013°44'0 0.0
2018-Apr-09 09:00N 45°33' E 013°44'0 0.0
2018-Apr-09 08:30N 45°33' E 013°44'0 0.0
2018-Apr-09 07:57N 45°33' E 013°44'0 0.0
2018-Apr-09 07:21N 45°33' E 013°44'0 0.0
2018-Apr-09 06:57N 45°33' E 013°44'1 1.3
2018-Apr-09 06:30N 45°33' E 013°44'2 3.1
2018-Apr-09 06:00N 45°34' E 013°42'0 0.8
2018-Apr-09 05:25N 45°34' E 013°41'0 0.0
2018-Apr-09 04:58N 45°35' E 013°41'0 0.0
2018-Apr-09 04:28N 45°34' E 013°41'0 0.0
2018-Apr-09 03:55N 45°34' E 013°41'0 0.0
2018-Apr-09 03:25N 45°34' E 013°41'0 0.0
2018-Apr-09 02:55N 45°34' E 013°41'0 0.0
2018-Apr-09 02:25N 45°34' E 013°41'0 0.0
2018-Apr-09 01:58N 45°34' E 013°41'0 0.0
2018-Apr-09 01:28N 45°34' E 013°41'0 0.0
2018-Apr-09 00:52N 45°34' E 013°41'0 0.0
2018-Apr-09 00:28N 45°34' E 013°41'0 0.0
2018-Apr-08 23:58N 45°34' E 013°41'0 0.0
2018-Apr-08 23:28N 45°34' E 013°41'0 0.0
2018-Apr-08 22:58N 45°34' E 013°41'0 0.0
2018-Apr-08 22:28N 45°34' E 013°41'0 0.0
2018-Apr-08 21:58N 45°34' E 013°41'0 0.0
2018-Apr-08 21:22N 45°34' E 013°41'0 0.0
2018-Apr-08 20:58N 45°34' E 013°41'0 0.0
2018-Apr-08 20:28N 45°34' E 013°41'0 0.0
2018-Apr-08 19:55N 45°34' E 013°41'0 0.0
2018-Apr-08 19:25N 45°35' E 013°41'0 0.1
2018-Apr-08 18:49N 45°35' E 013°41'0 0.0
2018-Apr-08 18:22N 45°35' E 013°41'0 0.0
2018-Apr-08 17:55N 45°35' E 013°41'0 0.0
2018-Apr-08 17:28N 45°35' E 013°41'0 0.0
2018-Apr-08 16:58N 45°35' E 013°41'0 0.0
2018-Apr-08 16:28N 45°35' E 013°41'0 0.0
2018-Apr-08 15:49N 45°35' E 013°41'0 0.0
2018-Apr-08 15:22N 45°34' E 013°41'0 0.1
2018-Apr-08 14:58N 45°34' E 013°41'0 0.1
2018-Apr-08 14:25N 45°34' E 013°41'0 0.0
2018-Apr-08 13:58N 45°34' E 013°41'0 0.0
2018-Apr-08 13:19N 45°34' E 013°41'0 0.0
2018-Apr-07 18:28N 45°34' E 013°41'0 0.1
2018-Apr-07 17:58N 45°34' E 013°41'0 0.0
2018-Apr-07 17:25N 45°34' E 013°41'0 0.0
2018-Apr-07 16:58N 45°34' E 013°41'0 0.1
2018-Apr-07 16:28N 45°34' E 013°41'0 0.0
2018-Apr-07 15:55N 45°34' E 013°41'0 0.0
2018-Apr-07 15:28N 45°34' E 013°41'0 0.0
2018-Apr-07 14:58N 45°34' E 013°41'0 0.0
2018-Apr-07 14:25N 45°34' E 013°41'0 0.0
2018-Apr-07 13:49N 45°34' E 013°41'0 0.0
2018-Apr-07 13:28N 45°34' E 013°41'0 0.0
2018-Apr-07 12:49N 45°34' E 013°41'0 0.0
2018-Apr-07 12:28N 45°34' E 013°41'0 0.0
2018-Apr-07 11:58N 45°34' E 013°41'0 0.0
2018-Apr-07 11:19N 45°34' E 013°41'0 0.0
2018-Apr-07 10:52N 45°34' E 013°41'0 0.1
2018-Apr-07 10:25N 45°35' E 013°41'0 0.1
2018-Apr-07 09:58N 45°35' E 013°41'0 0.0
2018-Apr-07 09:28N 45°34' E 013°41'0 0.0
2018-Apr-07 08:58N 45°34' E 013°41'0 0.0
2018-Apr-07 08:25N 45°35' E 013°41'0 0.0
2018-Apr-07 07:58N 45°35' E 013°41'0 0.0
2018-Apr-07 07:25N 45°35' E 013°41'0 0.0
2018-Apr-07 06:58N 45°35' E 013°41'0 0.0
2018-Apr-07 06:19N 45°35' E 013°41'0 0.0
2018-Apr-07 05:58N 45°35' E 013°41'0 0.0
2018-Apr-07 05:28N 45°34' E 013°41'0 0.0
2018-Apr-07 04:58N 45°34' E 013°41'0 0.0
2018-Apr-07 04:25N 45°34' E 013°41'0 0.1
2018-Apr-07 03:58N 45°34' E 013°41'0 0.0
2018-Apr-07 03:25N 45°34' E 013°41'0 0.1
2018-Apr-07 02:58N 45°35' E 013°41'0 0.0
2018-Apr-07 02:28N 45°34' E 013°41'0 0.0
2018-Apr-07 01:55N 45°34' E 013°41'0 0.0
2018-Apr-07 01:28N 45°34' E 013°41'0 0.0
2018-Apr-07 00:58N 45°34' E 013°41'0 0.0
2018-Apr-07 00:28N 45°34' E 013°41'0 0.0
2018-Apr-06 23:58N 45°34' E 013°41'0 0.0
2018-Apr-06 23:28N 45°34' E 013°41'0 0.0
2018-Apr-06 22:58N 45°34' E 013°41'0 0.0
2018-Apr-06 22:31N 45°34' E 013°41'0 0.2
2018-Apr-06 22:00N 45°34' E 013°41'3 6.7
2018-Apr-06 21:31N 45°34' E 013°36'611.5
2018-Apr-06 21:01N 45°33' E 013°28'612.1
2018-Apr-06 20:30N 45°29' E 013°21'612.1
2018-Apr-06 19:59N 45°25' E 013°15'511.2
2018-Apr-06 19:30N 45°19' E 013°14'612.2
2018-Apr-06 19:00N 45°13' E 013°16'612.2
2018-Apr-06 18:31N 45°08' E 013°18'612.3
2018-Apr-06 18:00N 45°02' E 013°20'612.2
2018-Apr-06 17:30N 44°56' E 013°24'612.1
2018-Apr-06 17:00N 44°51' E 013°29'612.1
2018-Apr-06 16:30N 44°46' E 013°34'612.0
2018-Apr-06 16:00N 44°41' E 013°38'612.0
2018-Apr-06 15:30N 44°36' E 013°43'612.1
2018-Apr-06 15:00N 44°31' E 013°47'912.3
2018-Apr-06 14:18N 44°23' E 013°53'  

Dump ship's entire track history